sensor_id;sensor_type;location;lat;lon;timestamp;pressure;altitude;pressure_sealevel;temperature;humidity
45941;BME280;31858;46.008;8.978;2023-03-20T00:08:39;94666.63;;;7.89;100.00
45941;BME280;31858;46.008;8.978;2023-03-20T00:18:42;94665.00;;;7.84;100.00
45941;BME280;31858;46.008;8.978;2023-03-20T00:28:44;94658.88;;;7.80;100.00
45941;BME280;31858;46.008;8.978;2023-03-20T00:38:48;94667.34;;;7.67;100.00
45941;BME280;31858;46.008;8.978;2023-03-20T00:48:50;94658.47;;;7.59;100.00
45941;BME280;31858;46.008;8.978;2023-03-20T00:58:54;94659.66;;;7.42;100.00
45941;BME280;31858;46.008;8.978;2023-03-20T01:08:55;94654.03;;;7.28;100.00
45941;BME280;31858;46.008;8.978;2023-03-20T01:18:58;94653.28;;;7.28;100.00
45941;BME280;31858;46.008;8.978;2023-03-20T01:29:00;94649.56;;;7.13;100.00
45941;BME280;31858;46.008;8.978;2023-03-20T01:39:04;94640.59;;;7.02;100.00
45941;BME280;31858;46.008;8.978;2023-03-20T01:49:08;94631.19;;;7.04;100.00
45941;BME280;31858;46.008;8.978;2023-03-20T01:59:33;94611.59;;;6.90;100.00
45941;BME280;31858;46.008;8.978;2023-03-20T02:09:36;94612.28;;;6.86;100.00
45941;BME280;31858;46.008;8.978;2023-03-20T02:19:46;94606.03;;;6.79;100.00
45941;BME280;31858;46.008;8.978;2023-03-20T02:30:17;94596.84;;;6.73;100.00
45941;BME280;31858;46.008;8.978;2023-03-20T02:40:32;94595.56;;;6.67;100.00
45941;BME280;31858;46.008;8.978;2023-03-20T02:50:41;94593.59;;;6.64;100.00
45941;BME280;31858;46.008;8.978;2023-03-20T03:00:55;94591.91;;;6.55;100.00
45941;BME280;31858;46.008;8.978;2023-03-20T03:11:01;94582.41;;;6.54;100.00
45941;BME280;31858;46.008;8.978;2023-03-20T03:21:07;94596.97;;;6.45;100.00
45941;BME280;31858;46.008;8.978;2023-03-20T03:31:13;94600.41;;;6.30;100.00
45941;BME280;31858;46.008;8.978;2023-03-20T03:41:24;94603.97;;;6.37;100.00
45941;BME280;31858;46.008;8.978;2023-03-20T03:51:32;94609.78;;;6.27;100.00
45941;BME280;31858;46.008;8.978;2023-03-20T04:01:37;94605.78;;;6.17;100.00
45941;BME280;31858;46.008;8.978;2023-03-20T04:11:44;94625.56;;;6.08;100.00
45941;BME280;31858;46.008;8.978;2023-03-20T04:21:48;94624.19;;;6.14;100.00
45941;BME280;31858;46.008;8.978;2023-03-20T04:31:50;94637.94;;;6.04;100.00
45941;BME280;31858;46.008;8.978;2023-03-20T04:41:53;94629.03;;;5.96;100.00
45941;BME280;31858;46.008;8.978;2023-03-20T04:51:54;94633.13;;;5.94;100.00
45941;BME280;31858;46.008;8.978;2023-03-20T05:01:57;94627.59;;;5.99;100.00
45941;BME280;31858;46.008;8.978;2023-03-20T05:11:59;94639.75;;;5.87;100.00
45941;BME280;31858;46.008;8.978;2023-03-20T05:22:02;94632.28;;;5.89;100.00
45941;BME280;31858;46.008;8.978;2023-03-20T05:32:04;94631.88;;;5.75;100.00
45941;BME280;31858;46.008;8.978;2023-03-20T05:42:07;94638.41;;;5.66;100.00
45941;BME280;31858;46.008;8.978;2023-03-20T05:52:09;94655.00;;;5.78;100.00
45941;BME280;31858;46.008;8.978;2023-03-20T06:02:12;94660.09;;;5.71;100.00
45941;BME280;31858;46.008;8.978;2023-03-20T06:12:13;94662.47;;;5.76;100.00
45941;BME280;31858;46.008;8.978;2023-03-20T06:22:16;94677.88;;;5.86;100.00
45941;BME280;31858;46.008;8.978;2023-03-20T06:32:18;94680.50;;;5.86;100.00
45941;BME280;31858;46.008;8.978;2023-03-20T06:42:21;94664.78;;;5.90;100.00
45941;BME280;31858;46.008;8.978;2023-03-20T06:52:23;94672.47;;;5.95;100.00
45941;BME280;31858;46.008;8.978;2023-03-20T07:02:26;94674.78;;;5.97;100.00
45941;BME280;31858;46.008;8.978;2023-03-20T07:12:27;94678.28;;;6.01;100.00
45941;BME280;31858;46.008;8.978;2023-03-20T07:22:31;94685.00;;;5.98;100.00
45941;BME280;31858;46.008;8.978;2023-03-20T07:32:32;94693.06;;;6.17;100.00
45941;BME280;31858;46.008;8.978;2023-03-20T07:42:35;94691.66;;;6.36;100.00
45941;BME280;31858;46.008;8.978;2023-03-20T07:52:37;94696.16;;;6.51;100.00
45941;BME280;31858;46.008;8.978;2023-03-20T08:02:40;94696.28;;;6.39;100.00
45941;BME280;31858;46.008;8.978;2023-03-20T08:12:42;94704.63;;;6.25;100.00
45941;BME280;31858;46.008;8.978;2023-03-20T08:22:45;94701.53;;;6.23;100.00
45941;BME280;31858;46.008;8.978;2023-03-20T08:32:48;94714.22;;;6.45;100.00
45941;BME280;31858;46.008;8.978;2023-03-20T08:42:51;94715.31;;;6.60;100.00
45941;BME280;31858;46.008;8.978;2023-03-20T08:52:53;94718.72;;;6.61;100.00
45941;BME280;31858;46.008;8.978;2023-03-20T09:02:56;94720.69;;;6.95;100.00
45941;BME280;31858;46.008;8.978;2023-03-20T09:12:57;94711.88;;;7.07;100.00
45941;BME280;31858;46.008;8.978;2023-03-20T09:23:00;94698.91;;;7.37;100.00
45941;BME280;31858;46.008;8.978;2023-03-20T09:33:02;94683.66;;;7.69;100.00
45941;BME280;31858;46.008;8.978;2023-03-20T09:43:09;94685.53;;;7.88;100.00
45941;BME280;31858;46.008;8.978;2023-03-20T09:53:21;94686.06;;;8.16;100.00
45941;BME280;31858;46.008;8.978;2023-03-20T10:03:31;94690.81;;;8.45;100.00
45941;BME280;31858;46.008;8.978;2023-03-20T10:13:46;94688.19;;;8.95;100.00
45941;BME280;31858;46.008;8.978;2023-03-20T10:23:59;94694.56;;;9.16;100.00
45941;BME280;31858;46.008;8.978;2023-03-20T10:34:16;94694.94;;;9.41;100.00
45941;BME280;31858;46.008;8.978;2023-03-20T10:44:26;94692.88;;;9.88;100.00
45941;BME280;31858;46.008;8.978;2023-03-20T10:54:31;94673.72;;;10.45;100.00
45941;BME280;31858;46.008;8.978;2023-03-20T11:04:35;94664.81;;;10.71;100.00
45941;BME280;31858;46.008;8.978;2023-03-20T11:14:38;94665.44;;;11.05;100.00
45941;BME280;31858;46.008;8.978;2023-03-20T11:24:43;94650.41;;;11.38;100.00
45941;BME280;31858;46.008;8.978;2023-03-20T11:34:46;94650.53;;;11.59;100.00
45941;BME280;31858;46.008;8.978;2023-03-20T11:44:56;94642.28;;;11.93;100.00
45941;BME280;31858;46.008;8.978;2023-03-20T11:54:59;94624.44;;;12.25;100.00
45941;BME280;31858;46.008;8.978;2023-03-20T12:05:17;94614.56;;;12.61;100.00
45941;BME280;31858;46.008;8.978;2023-03-20T12:15:23;94602.72;;;12.66;100.00
45941;BME280;31858;46.008;8.978;2023-03-20T12:25:29;94593.53;;;12.95;100.00
45941;BME280;31858;46.008;8.978;2023-03-20T12:35:37;94582.03;;;13.20;100.00
45941;BME280;31858;46.008;8.978;2023-03-20T12:45:47;94566.28;;;13.43;100.00
45941;BME280;31858;46.008;8.978;2023-03-20T12:56:01;94560.41;;;13.73;100.00
45941;BME280;31858;46.008;8.978;2023-03-20T13:06:13;94569.50;;;13.93;100.00
45941;BME280;31858;46.008;8.978;2023-03-20T13:16:23;94574.38;;;14.09;100.00
45941;BME280;31858;46.008;8.978;2023-03-20T13:26:34;94555.84;;;14.32;100.00
45941;BME280;31858;46.008;8.978;2023-03-20T13:36:49;94560.91;;;14.23;100.00
45941;BME280;31858;46.008;8.978;2023-03-20T13:46:56;94550.09;;;14.30;100.00
45941;BME280;31858;46.008;8.978;2023-03-20T13:57:04;94553.28;;;14.66;100.00
45941;BME280;31858;46.008;8.978;2023-03-20T14:07:32;94554.81;;;14.67;100.00
45941;BME280;31858;46.008;8.978;2023-03-20T14:17:34;94553.91;;;14.85;100.00
45941;BME280;31858;46.008;8.978;2023-03-20T14:27:52;94542.91;;;14.72;100.00
45941;BME280;31858;46.008;8.978;2023-03-20T14:38:06;94546.31;;;14.76;100.00
45941;BME280;31858;46.008;8.978;2023-03-20T14:48:25;94543.81;;;14.55;100.00
45941;BME280;31858;46.008;8.978;2023-03-20T14:58:54;94531.97;;;14.52;100.00
45941;BME280;31858;46.008;8.978;2023-03-20T15:09:00;94539.13;;;14.66;100.00
45941;BME280;31858;46.008;8.978;2023-03-20T15:19:16;94532.31;;;14.54;100.00
45941;BME280;31858;46.008;8.978;2023-03-20T15:29:19;94531.16;;;14.55;100.00
45941;BME280;31858;46.008;8.978;2023-03-20T15:39:23;94536.38;;;14.25;100.00
45941;BME280;31858;46.008;8.978;2023-03-20T15:49:28;94542.22;;;14.09;100.00
45941;BME280;31858;46.008;8.978;2023-03-20T15:59:32;94529.34;;;13.90;100.00
45941;BME280;31858;46.008;8.978;2023-03-20T16:09:43;94527.50;;;13.80;100.00
45941;BME280;31858;46.008;8.978;2023-03-20T16:19:45;94531.69;;;13.81;100.00
45941;BME280;31858;46.008;8.978;2023-03-20T16:29:49;94528.38;;;13.52;100.00
45941;BME280;31858;46.008;8.978;2023-03-20T16:40:13;94551.41;;;13.35;100.00
45941;BME280;31858;46.008;8.978;2023-03-20T16:50:19;94545.03;;;12.83;100.00
45941;BME280;31858;46.008;8.978;2023-03-20T17:00:28;94555.75;;;12.51;100.00
45941;BME280;31858;46.008;8.978;2023-03-20T17:10:32;94557.28;;;12.37;100.00
45941;BME280;31858;46.008;8.978;2023-03-20T17:20:34;94569.47;;;12.14;100.00
45941;BME280;31858;46.008;8.978;2023-03-20T17:30:37;94586.56;;;11.88;100.00
45941;BME280;31858;46.008;8.978;2023-03-20T17:40:38;94602.53;;;11.66;100.00
45941;BME280;31858;46.008;8.978;2023-03-20T17:50:42;94619.25;;;11.56;100.00
45941;BME280;31858;46.008;8.978;2023-03-20T18:00:44;94625.72;;;11.52;100.00
45941;BME280;31858;46.008;8.978;2023-03-20T18:10:47;94633.66;;;11.41;100.00
45941;BME280;31858;46.008;8.978;2023-03-20T18:20:49;94638.91;;;11.23;100.00
45941;BME280;31858;46.008;8.978;2023-03-20T18:30:52;94662.03;;;11.08;100.00
45941;BME280;31858;46.008;8.978;2023-03-20T18:40:54;94669.22;;;11.01;100.00
45941;BME280;31858;46.008;8.978;2023-03-20T18:50:57;94675.44;;;10.68;100.00
45941;BME280;31858;46.008;8.978;2023-03-20T19:01:01;94684.91;;;10.62;100.00
45941;BME280;31858;46.008;8.978;2023-03-20T19:11:04;94692.81;;;10.55;100.00
45941;BME280;31858;46.008;8.978;2023-03-20T19:21:07;94692.53;;;10.63;100.00
45941;BME280;31858;46.008;8.978;2023-03-20T19:31:11;94703.13;;;10.56;100.00
45941;BME280;31858;46.008;8.978;2023-03-20T19:41:12;94714.00;;;10.40;100.00
45941;BME280;31858;46.008;8.978;2023-03-20T19:51:17;94729.16;;;10.33;100.00
45941;BME280;31858;46.008;8.978;2023-03-20T20:01:20;94735.25;;;10.33;100.00
45941;BME280;31858;46.008;8.978;2023-03-20T20:11:23;94732.47;;;10.23;100.00
45941;BME280;31858;46.008;8.978;2023-03-20T20:21:25;94734.38;;;10.22;100.00
45941;BME280;31858;46.008;8.978;2023-03-20T20:31:29;94744.78;;;10.34;100.00
45941;BME280;31858;46.008;8.978;2023-03-20T20:41:31;94765.84;;;10.17;100.00
45941;BME280;31858;46.008;8.978;2023-03-20T20:51:34;94767.78;;;9.90;100.00
45941;BME280;31858;46.008;8.978;2023-03-20T21:01:35;94759.66;;;10.09;100.00
45941;BME280;31858;46.008;8.978;2023-03-20T21:11:38;94756.00;;;9.91;100.00
45941;BME280;31858;46.008;8.978;2023-03-20T21:21:40;94763.84;;;9.80;100.00
45941;BME280;31858;46.008;8.978;2023-03-20T21:31:43;94757.88;;;9.87;100.00
45941;BME280;31858;46.008;8.978;2023-03-20T21:41:44;94762.56;;;9.97;100.00
45941;BME280;31858;46.008;8.978;2023-03-20T21:51:47;94765.53;;;9.92;100.00
45941;BME280;31858;46.008;8.978;2023-03-20T22:01:49;94776.22;;;9.95;100.00
45941;BME280;31858;46.008;8.978;2023-03-20T22:11:52;94773.94;;;9.94;100.00
45941;BME280;31858;46.008;8.978;2023-03-20T22:21:54;94783.41;;;9.91;100.00
45941;BME280;31858;46.008;8.978;2023-03-20T22:31:57;94771.75;;;10.03;100.00
45941;BME280;31858;46.008;8.978;2023-03-20T22:41:59;94777.41;;;9.98;100.00
45941;BME280;31858;46.008;8.978;2023-03-20T22:52:02;94776.34;;;9.76;100.00
45941;BME280;31858;46.008;8.978;2023-03-20T23:02:03;94764.94;;;9.49;100.00
45941;BME280;31858;46.008;8.978;2023-03-20T23:12:07;94760.38;;;9.49;100.00
45941;BME280;31858;46.008;8.978;2023-03-20T23:22:08;94754.41;;;9.56;100.00
45941;BME280;31858;46.008;8.978;2023-03-20T23:32:11;94752.41;;;9.76;100.00
45941;BME280;31858;46.008;8.978;2023-03-20T23:42:13;94748.53;;;9.70;100.00
45941;BME280;31858;46.008;8.978;2023-03-20T23:52:16;94752.59;;;9.90;100.00
